Ms Megan — WDE3441 — position and weather

sailwx.info

Track history (hours):
 
Tides and Currents Weather Stations Pressure Air Temp Water Temp Dewpoint Dewpoint Depression Visibility Wind Speed Wind Dir Waves Ship Positions

Ms Megan

Owner: MNM BOATS, INC, GOLDEN MEADOW, LA. More information available from US FCC via Universal Licensing System and Coast Guard Vessel Documentation Center.

Last reported at 2017-Oct-18 21:41 UTC. Time now 2017-Oct-20 17:37 UTC.
Position N 29°37' W 092°16'.

Length 50 m; draft 3 m.

Type: Cargo ship. MMSI: 367339130.

Date/timePositionNaut miles runAvg speedWind from/ knotsBaromVisibWave heightAir tempDewpointWater temp
2017-Oct-18 21:41N 29°37' W 092°16'1 6.5
2017-Oct-18 21:31N 29°39' W 092°16'3 6.9
2017-Oct-18 21:01N 29°42' W 092°15'3 6.6
2017-Oct-18 20:31N 29°45' W 092°13'3 6.8
2017-Oct-18 20:00N 29°47' W 092°10'1 2.7
2017-Oct-18 19:30N 29°48' W 092°09'0 0.0
2017-Oct-18 19:00N 29°48' W 092°09'0 0.0
2017-Oct-18 18:30N 29°48' W 092°09'0 0.0
2017-Oct-18 18:00N 29°48' W 092°09'0 0.0
2017-Oct-18 17:30N 29°48' W 092°09'0 0.0
2017-Oct-18 17:01N 29°48' W 092°09'0 0.0
2017-Oct-18 16:30N 29°48' W 092°09'0 0.6
2017-Oct-18 16:01N 29°47' W 092°09'3 5.6
2017-Oct-18 15:31N 29°46' W 092°11'3 6.9
2017-Oct-18 15:01N 29°44' W 092°15'6 6.2
2017-Oct-18 13:58N 29°37' W 092°16'  
2017-Oct-12 04:48N 29°34' W 092°18'3 6.9
2017-Oct-12 04:22N 29°37' W 092°17'2 6.7
2017-Oct-12 04:01N 29°39' W 092°16'4 7.2
2017-Oct-12 03:30N 29°43' W 092°15'3 6.8
2017-Oct-12 03:01N 29°45' W 092°12'3 6.6
2017-Oct-12 02:30N 29°47' W 092°09'1 1.5
2017-Oct-12 02:01N 29°48' W 092°09'0 0.0
2017-Oct-12 01:30N 29°48' W 092°09'0 0.0
2017-Oct-12 01:00N 29°48' W 092°09'0 0.0
2017-Oct-12 00:30N 29°48' W 092°09'0 0.0
2017-Oct-12 00:00N 29°48' W 092°09'0 0.0
2017-Oct-11 23:30N 29°48' W 092°09'0 0.0
2017-Oct-11 23:00N 29°48' W 092°09'0 0.0
2017-Oct-11 22:30N 29°48' W 092°09'0 0.0
2017-Oct-11 22:01N 29°48' W 092°09'0 0.0
2017-Oct-11 21:30N 29°48' W 092°09'0 0.0
2017-Oct-11 21:00N 29°48' W 092°09'0 0.0
2017-Oct-11 20:31N 29°48' W 092°09'0 0.0
2017-Oct-11 20:00N 29°48' W 092°09'0 0.0
2017-Oct-11 19:30N 29°48' W 092°09'0 0.0
2017-Oct-11 19:00N 29°48' W 092°09'0 0.0
2017-Oct-11 18:31N 29°48' W 092°09'0 0.0
2017-Oct-11 18:00N 29°48' W 092°09'0 0.0
2017-Oct-11 17:30N 29°48' W 092°09'0 0.0
2017-Oct-11 17:01N 29°48' W 092°09'  
2017-Oct-08 23:34N 29°38' W 092°16'0 5.7
2017-Oct-08 23:30N 29°38' W 092°16'3 5.7
2017-Oct-08 23:00N 29°41' W 092°15'3 5.8
2017-Oct-08 22:30N 29°44' W 092°15'3 6.0
2017-Oct-08 22:00N 29°46' W 092°12'  
Track history (hours):
 
Tides and Currents Weather Stations Pressure Air Temp Water Temp Dewpoint Dewpoint Depression Visibility Wind Speed Wind Dir Waves Ship Positions

Ms Megan

Owner: MNM BOATS, INC, GOLDEN MEADOW, LA. More information available from US FCC via Universal Licensing System and Coast Guard Vessel Documentation Center.

Last reported at 2017-Oct-18 21:41 UTC. Time now 2017-Oct-20 17:37 UTC.
Position N 29°37' W 092°16'.

Length 50 m; draft 3 m.

Type: Cargo ship. MMSI: 367339130.

Date/timePositionNaut miles runAvg speedWind from/ knotsBaromVisibWave heightAir tempDewpointWater temp
2017-Oct-18 21:41N 29°37' W 092°16'1 6.5
2017-Oct-18 21:31N 29°39' W 092°16'3 6.9
2017-Oct-18 21:01N 29°42' W 092°15'3 6.6
2017-Oct-18 20:31N 29°45' W 092°13'3 6.8
2017-Oct-18 20:00N 29°47' W 092°10'1 2.7
2017-Oct-18 19:30N 29°48' W 092°09'0 0.0
2017-Oct-18 19:00N 29°48' W 092°09'0 0.0
2017-Oct-18 18:30N 29°48' W 092°09'0 0.0
2017-Oct-18 18:00N 29°48' W 092°09'0 0.0
2017-Oct-18 17:30N 29°48' W 092°09'0 0.0
2017-Oct-18 17:01N 29°48' W 092°09'0 0.0
2017-Oct-18 16:30N 29°48' W 092°09'0 0.6
2017-Oct-18 16:01N 29°47' W 092°09'3 5.6
2017-Oct-18 15:31N 29°46' W 092°11'3 6.9
2017-Oct-18 15:01N 29°44' W 092°15'6 6.2
2017-Oct-18 13:58N 29°37' W 092°16'  
2017-Oct-12 04:48N 29°34' W 092°18'3 6.9
2017-Oct-12 04:22N 29°37' W 092°17'2 6.7
2017-Oct-12 04:01N 29°39' W 092°16'4 7.2
2017-Oct-12 03:30N 29°43' W 092°15'3 6.8
2017-Oct-12 03:01N 29°45' W 092°12'3 6.6
2017-Oct-12 02:30N 29°47' W 092°09'1 1.5
2017-Oct-12 02:01N 29°48' W 092°09'0 0.0
2017-Oct-12 01:30N 29°48' W 092°09'0 0.0
2017-Oct-12 01:00N 29°48' W 092°09'0 0.0
2017-Oct-12 00:30N 29°48' W 092°09'0 0.0
2017-Oct-12 00:00N 29°48' W 092°09'0 0.0
2017-Oct-11 23:30N 29°48' W 092°09'0 0.0
2017-Oct-11 23:00N 29°48' W 092°09'0 0.0
2017-Oct-11 22:30N 29°48' W 092°09'0 0.0
2017-Oct-11 22:01N 29°48' W 092°09'0 0.0
2017-Oct-11 21:30N 29°48' W 092°09'0 0.0
2017-Oct-11 21:00N 29°48' W 092°09'0 0.0
2017-Oct-11 20:31N 29°48' W 092°09'0 0.0
2017-Oct-11 20:00N 29°48' W 092°09'0 0.0
2017-Oct-11 19:30N 29°48' W 092°09'0 0.0
2017-Oct-11 19:00N 29°48' W 092°09'0 0.0
2017-Oct-11 18:31N 29°48' W 092°09'0 0.0
2017-Oct-11 18:00N 29°48' W 092°09'0 0.0
2017-Oct-11 17:30N 29°48' W 092°09'0 0.0
2017-Oct-11 17:01N 29°48' W 092°09'  
2017-Oct-08 23:34N 29°38' W 092°16'0 5.7
2017-Oct-08 23:30N 29°38' W 092°16'3 5.7
2017-Oct-08 23:00N 29°41' W 092°15'3 5.8
2017-Oct-08 22:30N 29°44' W 092°15'3 6.0
2017-Oct-08 22:00N 29°46' W 092°12'  

Dump ship's entire track history